sensor_id;sensor_type;location;lat;lon;timestamp;P1;durP1;ratioP1;P2;durP2;ratioP2
15936;SDS011;9163;48.818;8.976;2022-09-09T00:01:43;4.53;;;1.70;;
15936;SDS011;9163;48.818;8.976;2022-09-09T00:04:23;3.20;;;1.40;;
15936;SDS011;9163;48.818;8.976;2022-09-09T00:06:56;4.30;;;1.23;;
15936;SDS011;9163;48.818;8.976;2022-09-09T00:09:48;6.27;;;1.60;;
15936;SDS011;9163;48.818;8.976;2022-09-09T00:12:25;4.67;;;1.40;;
15936;SDS011;9163;48.818;8.976;2022-09-09T00:15:05;3.23;;;1.40;;
15936;SDS011;9163;48.818;8.976;2022-09-09T00:17:42;4.10;;;1.40;;
15936;SDS011;9163;48.818;8.976;2022-09-09T00:20:14;7.03;;;1.43;;
15936;SDS011;9163;48.818;8.976;2022-09-09T00:22:51;2.63;;;1.20;;
15936;SDS011;9163;48.818;8.976;2022-09-09T00:25:27;3.13;;;1.50;;
15936;SDS011;9163;48.818;8.976;2022-09-09T00:28:01;5.00;;;1.83;;
15936;SDS011;9163;48.818;8.976;2022-09-09T00:30:31;7.60;;;1.70;;
15936;SDS011;9163;48.818;8.976;2022-09-09T00:33:01;4.00;;;1.10;;
15936;SDS011;9163;48.818;8.976;2022-09-09T00:35:37;2.57;;;1.13;;
15936;SDS011;9163;48.818;8.976;2022-09-09T00:38:10;3.33;;;1.40;;
15936;SDS011;9163;48.818;8.976;2022-09-09T00:40:41;2.87;;;1.10;;
15936;SDS011;9163;48.818;8.976;2022-09-09T00:43:21;4.07;;;1.20;;
15936;SDS011;9163;48.818;8.976;2022-09-09T00:46:05;5.90;;;1.60;;
15936;SDS011;9163;48.818;8.976;2022-09-09T00:48:52;4.43;;;1.30;;
15936;SDS011;9163;48.818;8.976;2022-09-09T00:51:29;4.40;;;1.20;;
15936;SDS011;9163;48.818;8.976;2022-09-09T00:54:12;2.43;;;1.30;;
15936;SDS011;9163;48.818;8.976;2022-09-09T00:56:56;3.03;;;1.10;;
15936;SDS011;9163;48.818;8.976;2022-09-09T00:59:38;2.13;;;1.10;;
15936;SDS011;9163;48.818;8.976;2022-09-09T01:02:14;2.57;;;1.10;;
15936;SDS011;9163;48.818;8.976;2022-09-09T01:04:48;4.87;;;1.13;;
15936;SDS011;9163;48.818;8.976;2022-09-09T01:07:16;3.67;;;1.30;;
15936;SDS011;9163;48.818;8.976;2022-09-09T01:09:51;5.30;;;1.07;;
15936;SDS011;9163;48.818;8.976;2022-09-09T01:12:26;2.43;;;1.00;;
15936;SDS011;9163;48.818;8.976;2022-09-09T01:15:10;4.40;;;1.23;;
15936;SDS011;9163;48.818;8.976;2022-09-09T01:17:44;2.27;;;1.10;;
15936;SDS011;9163;48.818;8.976;2022-09-09T01:20:17;3.63;;;1.07;;
15936;SDS011;9163;48.818;8.976;2022-09-09T01:22:52;2.50;;;1.00;;
15936;SDS011;9163;48.818;8.976;2022-09-09T01:28:45;2.47;;;1.10;;
15936;SDS011;9163;48.818;8.976;2022-09-09T01:31:15;2.70;;;1.17;;
15936;SDS011;9163;48.818;8.976;2022-09-09T01:33:46;4.03;;;1.30;;
15936;SDS011;9163;48.818;8.976;2022-09-09T01:36:15;5.77;;;1.20;;
15936;SDS011;9163;48.818;8.976;2022-09-09T01:38:48;3.63;;;1.20;;
15936;SDS011;9163;48.818;8.976;2022-09-09T01:41:15;4.13;;;1.30;;
15936;SDS011;9163;48.818;8.976;2022-09-09T01:43:44;2.57;;;1.20;;
15936;SDS011;9163;48.818;8.976;2022-09-09T01:46:11;2.27;;;1.07;;
15936;SDS011;9163;48.818;8.976;2022-09-09T01:48:40;4.80;;;1.60;;
15936;SDS011;9163;48.818;8.976;2022-09-09T01:51:08;4.90;;;1.37;;
15936;SDS011;9163;48.818;8.976;2022-09-09T01:53:36;2.50;;;1.23;;
15936;SDS011;9163;48.818;8.976;2022-09-09T01:56:18;3.63;;;1.30;;
15936;SDS011;9163;48.818;8.976;2022-09-09T01:59:09;7.13;;;1.30;;
15936;SDS011;9163;48.818;8.976;2022-09-09T02:01:47;3.57;;;1.20;;
15936;SDS011;9163;48.818;8.976;2022-09-09T02:04:27;2.90;;;0.93;;
15936;SDS011;9163;48.818;8.976;2022-09-09T02:07:02;2.87;;;1.20;;
15936;SDS011;9163;48.818;8.976;2022-09-09T02:09:49;3.53;;;1.13;;
15936;SDS011;9163;48.818;8.976;2022-09-09T02:12:27;2.80;;;0.90;;
15936;SDS011;9163;48.818;8.976;2022-09-09T02:14:59;3.37;;;0.80;;
15936;SDS011;9163;48.818;8.976;2022-09-09T02:17:33;2.93;;;0.80;;
15936;SDS011;9163;48.818;8.976;2022-09-09T02:20:06;2.43;;;0.90;;
15936;SDS011;9163;48.818;8.976;2022-09-09T02:22:37;3.53;;;0.83;;
15936;SDS011;9163;48.818;8.976;2022-09-09T02:25:07;2.17;;;0.70;;
15936;SDS011;9163;48.818;8.976;2022-09-09T02:27:37;2.00;;;0.70;;
15936;SDS011;9163;48.818;8.976;2022-09-09T02:30:08;2.30;;;0.80;;
15936;SDS011;9163;48.818;8.976;2022-09-09T02:32:37;2.20;;;0.70;;
15936;SDS011;9163;48.818;8.976;2022-09-09T02:35:07;2.47;;;1.00;;
15936;SDS011;9163;48.818;8.976;2022-09-09T02:37:38;2.97;;;0.70;;
15936;SDS011;9163;48.818;8.976;2022-09-09T02:40:08;2.63;;;0.60;;
15936;SDS011;9163;48.818;8.976;2022-09-09T02:42:39;2.10;;;0.70;;
15936;SDS011;9163;48.818;8.976;2022-09-09T02:45:09;3.53;;;0.97;;
15936;SDS011;9163;48.818;8.976;2022-09-09T02:47:37;2.90;;;0.70;;
15936;SDS011;9163;48.818;8.976;2022-09-09T02:50:12;4.20;;;0.90;;
15936;SDS011;9163;48.818;8.976;2022-09-09T02:52:45;4.13;;;0.90;;
15936;SDS011;9163;48.818;8.976;2022-09-09T02:55:22;2.70;;;1.00;;
15936;SDS011;9163;48.818;8.976;2022-09-09T02:57:54;2.70;;;0.77;;
15936;SDS011;9163;48.818;8.976;2022-09-09T03:00:25;1.37;;;0.70;;
15936;SDS011;9163;48.818;8.976;2022-09-09T03:02:53;2.17;;;1.00;;
15936;SDS011;9163;48.818;8.976;2022-09-09T03:05:21;1.53;;;0.70;;
15936;SDS011;9163;48.818;8.976;2022-09-09T03:07:49;3.13;;;1.03;;
15936;SDS011;9163;48.818;8.976;2022-09-09T03:10:16;3.33;;;0.80;;
15936;SDS011;9163;48.818;8.976;2022-09-09T03:12:43;3.63;;;0.70;;
15936;SDS011;9163;48.818;8.976;2022-09-09T03:15:11;2.33;;;0.90;;
15936;SDS011;9163;48.818;8.976;2022-09-09T03:17:40;3.43;;;1.10;;
15936;SDS011;9163;48.818;8.976;2022-09-09T03:20:08;3.93;;;0.80;;
15936;SDS011;9163;48.818;8.976;2022-09-09T03:22:35;3.37;;;0.80;;
15936;SDS011;9163;48.818;8.976;2022-09-09T03:25:03;2.00;;;0.90;;
15936;SDS011;9163;48.818;8.976;2022-09-09T03:27:31;2.50;;;1.10;;
15936;SDS011;9163;48.818;8.976;2022-09-09T03:29:58;2.67;;;0.93;;
15936;SDS011;9163;48.818;8.976;2022-09-09T03:32:29;1.77;;;0.70;;
15936;SDS011;9163;48.818;8.976;2022-09-09T03:34:58;2.83;;;0.90;;
15936;SDS011;9163;48.818;8.976;2022-09-09T03:37:25;2.00;;;0.80;;
15936;SDS011;9163;48.818;8.976;2022-09-09T03:39:52;4.00;;;1.00;;
15936;SDS011;9163;48.818;8.976;2022-09-09T03:42:21;4.27;;;0.80;;
15936;SDS011;9163;48.818;8.976;2022-09-09T03:44:48;2.23;;;0.90;;
15936;SDS011;9163;48.818;8.976;2022-09-09T03:47:16;3.43;;;1.00;;
15936;SDS011;9163;48.818;8.976;2022-09-09T03:49:44;1.90;;;0.70;;
15936;SDS011;9163;48.818;8.976;2022-09-09T03:52:13;3.13;;;0.87;;
15936;SDS011;9163;48.818;8.976;2022-09-09T03:54:41;3.77;;;0.93;;
15936;SDS011;9163;48.818;8.976;2022-09-09T03:57:09;5.97;;;0.90;;
15936;SDS011;9163;48.818;8.976;2022-09-09T03:59:36;4.17;;;0.90;;
15936;SDS011;9163;48.818;8.976;2022-09-09T04:02:04;2.90;;;0.80;;
15936;SDS011;9163;48.818;8.976;2022-09-09T04:15:36;1.83;;;0.50;;
15936;SDS011;9163;48.818;8.976;2022-09-09T04:18:04;3.53;;;0.73;;
15936;SDS011;9163;48.818;8.976;2022-09-09T04:20:31;2.13;;;0.60;;
15936;SDS011;9163;48.818;8.976;2022-09-09T04:22:59;2.07;;;0.70;;
15936;SDS011;9163;48.818;8.976;2022-09-09T04:29:07;1.57;;;0.77;;
15936;SDS011;9163;48.818;8.976;2022-09-09T04:31:36;2.07;;;0.90;;
15936;SDS011;9163;48.818;8.976;2022-09-09T04:34:07;1.97;;;0.70;;
15936;SDS011;9163;48.818;8.976;2022-09-09T04:36:35;1.67;;;0.73;;
15936;SDS011;9163;48.818;8.976;2022-09-09T04:39:02;2.80;;;0.80;;
15936;SDS011;9163;48.818;8.976;2022-09-09T04:41:29;3.30;;;1.10;;
15936;SDS011;9163;48.818;8.976;2022-09-09T04:43:57;2.67;;;0.80;;
15936;SDS011;9163;48.818;8.976;2022-09-09T04:46:26;4.03;;;0.93;;
15936;SDS011;9163;48.818;8.976;2022-09-09T04:48:55;2.97;;;1.20;;
15936;SDS011;9163;48.818;8.976;2022-09-09T04:51:22;4.03;;;0.90;;
15936;SDS011;9163;48.818;8.976;2022-09-09T04:53:49;4.53;;;1.17;;
15936;SDS011;9163;48.818;8.976;2022-09-09T04:56:19;5.43;;;1.23;;
15936;SDS011;9163;48.818;8.976;2022-09-09T04:58:46;4.10;;;1.00;;
15936;SDS011;9163;48.818;8.976;2022-09-09T05:01:14;7.07;;;1.13;;
15936;SDS011;9163;48.818;8.976;2022-09-09T05:03:43;1.97;;;1.00;;
15936;SDS011;9163;48.818;8.976;2022-09-09T05:06:13;3.63;;;0.97;;
15936;SDS011;9163;48.818;8.976;2022-09-09T05:08:42;3.33;;;1.10;;
15936;SDS011;9163;48.818;8.976;2022-09-09T05:11:13;2.83;;;1.40;;
15936;SDS011;9163;48.818;8.976;2022-09-09T05:13:42;3.00;;;1.53;;
15936;SDS011;9163;48.818;8.976;2022-09-09T05:16:10;3.03;;;1.10;;
15936;SDS011;9163;48.818;8.976;2022-09-09T05:18:38;3.20;;;1.10;;
15936;SDS011;9163;48.818;8.976;2022-09-09T05:21:06;6.27;;;1.20;;
15936;SDS011;9163;48.818;8.976;2022-09-09T05:23:35;3.57;;;1.10;;
15936;SDS011;9163;48.818;8.976;2022-09-09T05:26:03;3.33;;;1.20;;
15936;SDS011;9163;48.818;8.976;2022-09-09T05:28:33;3.13;;;1.10;;
15936;SDS011;9163;48.818;8.976;2022-09-09T05:31:02;2.50;;;1.10;;
15936;SDS011;9163;48.818;8.976;2022-09-09T05:33:31;3.63;;;1.20;;
15936;SDS011;9163;48.818;8.976;2022-09-09T05:35:58;2.57;;;1.10;;
15936;SDS011;9163;48.818;8.976;2022-09-09T05:38:28;2.17;;;1.10;;
15936;SDS011;9163;48.818;8.976;2022-09-09T05:40:57;3.47;;;1.10;;
15936;SDS011;9163;48.818;8.976;2022-09-09T05:43:25;2.73;;;0.87;;
15936;SDS011;9163;48.818;8.976;2022-09-09T05:45:59;3.53;;;0.90;;
15936;SDS011;9163;48.818;8.976;2022-09-09T05:48:28;2.90;;;1.07;;
15936;SDS011;9163;48.818;8.976;2022-09-09T05:50:56;2.57;;;0.90;;
15936;SDS011;9163;48.818;8.976;2022-09-09T05:53:24;2.90;;;0.93;;
15936;SDS011;9163;48.818;8.976;2022-09-09T05:55:58;2.53;;;0.83;;
15936;SDS011;9163;48.818;8.976;2022-09-09T05:58:27;4.17;;;1.10;;
15936;SDS011;9163;48.818;8.976;2022-09-09T06:00:59;3.50;;;1.20;;
15936;SDS011;9163;48.818;8.976;2022-09-09T06:03:28;3.10;;;1.10;;
15936;SDS011;9163;48.818;8.976;2022-09-09T06:05:58;2.57;;;1.13;;
15936;SDS011;9163;48.818;8.976;2022-09-09T06:08:27;3.43;;;1.20;;
15936;SDS011;9163;48.818;8.976;2022-09-09T06:11:01;4.20;;;1.20;;
15936;SDS011;9163;48.818;8.976;2022-09-09T06:13:30;3.97;;;1.10;;
15936;SDS011;9163;48.818;8.976;2022-09-09T06:15:58;3.43;;;0.90;;
15936;SDS011;9163;48.818;8.976;2022-09-09T06:18:25;4.87;;;1.13;;
15936;SDS011;9163;48.818;8.976;2022-09-09T06:20:54;2.83;;;1.13;;
15936;SDS011;9163;48.818;8.976;2022-09-09T06:23:22;3.23;;;1.50;;
15936;SDS011;9163;48.818;8.976;2022-09-09T06:25:49;4.47;;;1.30;;
15936;SDS011;9163;48.818;8.976;2022-09-09T06:28:18;4.77;;;1.30;;
15936;SDS011;9163;48.818;8.976;2022-09-09T06:30:45;4.90;;;1.23;;
15936;SDS011;9163;48.818;8.976;2022-09-09T06:33:12;5.07;;;1.60;;
15936;SDS011;9163;48.818;8.976;2022-09-09T06:35:40;3.70;;;1.40;;
15936;SDS011;9163;48.818;8.976;2022-09-09T06:38:07;4.90;;;1.60;;
15936;SDS011;9163;48.818;8.976;2022-09-09T06:40:35;4.23;;;1.70;;
15936;SDS011;9163;48.818;8.976;2022-09-09T06:43:02;4.27;;;1.70;;
15936;SDS011;9163;48.818;8.976;2022-09-09T06:45:34;6.27;;;2.10;;
15936;SDS011;9163;48.818;8.976;2022-09-09T06:48:02;3.67;;;2.00;;
15936;SDS011;9163;48.818;8.976;2022-09-09T06:50:29;7.80;;;2.20;;
15936;SDS011;9163;48.818;8.976;2022-09-09T06:52:56;4.17;;;1.80;;
15936;SDS011;9163;48.818;8.976;2022-09-09T06:55:24;5.47;;;1.47;;
15936;SDS011;9163;48.818;8.976;2022-09-09T06:57:51;3.47;;;1.37;;
15936;SDS011;9163;48.818;8.976;2022-09-09T07:00:18;6.87;;;1.80;;
15936;SDS011;9163;48.818;8.976;2022-09-09T07:13:38;3.27;;;1.10;;
15936;SDS011;9163;48.818;8.976;2022-09-09T07:16:08;3.27;;;1.37;;
15936;SDS011;9163;48.818;8.976;2022-09-09T07:18:36;3.97;;;1.30;;
15936;SDS011;9163;48.818;8.976;2022-09-09T07:21:03;6.40;;;1.17;;
15936;SDS011;9163;48.818;8.976;2022-09-09T07:23:32;4.07;;;1.13;;
15936;SDS011;9163;48.818;8.976;2022-09-09T07:26:01;4.10;;;1.20;;
15936;SDS011;9163;48.818;8.976;2022-09-09T07:28:28;2.57;;;1.10;;
15936;SDS011;9163;48.818;8.976;2022-09-09T07:30:58;3.97;;;1.20;;
15936;SDS011;9163;48.818;8.976;2022-09-09T07:33:27;2.27;;;1.10;;
15936;SDS011;9163;48.818;8.976;2022-09-09T07:36:01;3.27;;;1.03;;
15936;SDS011;9163;48.818;8.976;2022-09-09T07:38:30;4.67;;;1.20;;
15936;SDS011;9163;48.818;8.976;2022-09-09T07:41:02;3.67;;;1.10;;
15936;SDS011;9163;48.818;8.976;2022-09-09T07:43:31;4.80;;;1.10;;
15936;SDS011;9163;48.818;8.976;2022-09-09T07:46:00;2.07;;;0.90;;
15936;SDS011;9163;48.818;8.976;2022-09-09T07:48:29;4.07;;;1.20;;
15936;SDS011;9163;48.818;8.976;2022-09-09T07:51:04;2.43;;;0.90;;
15936;SDS011;9163;48.818;8.976;2022-09-09T07:53:33;2.23;;;0.90;;
15936;SDS011;9163;48.818;8.976;2022-09-09T07:56:02;3.97;;;0.97;;
15936;SDS011;9163;48.818;8.976;2022-09-09T07:58:30;3.87;;;0.80;;
15936;SDS011;9163;48.818;8.976;2022-09-09T08:01:10;3.50;;;0.90;;
15936;SDS011;9163;48.818;8.976;2022-09-09T08:03:39;3.40;;;0.90;;
15936;SDS011;9163;48.818;8.976;2022-09-09T08:06:07;4.37;;;1.33;;
15936;SDS011;9163;48.818;8.976;2022-09-09T08:08:35;2.67;;;1.00;;
15936;SDS011;9163;48.818;8.976;2022-09-09T08:11:04;3.87;;;0.80;;
15936;SDS011;9163;48.818;8.976;2022-09-09T08:13:34;3.87;;;0.90;;
15936;SDS011;9163;48.818;8.976;2022-09-09T08:16:06;2.37;;;1.00;;
15936;SDS011;9163;48.818;8.976;2022-09-09T08:18:35;3.07;;;0.90;;
15936;SDS011;9163;48.818;8.976;2022-09-09T08:21:06;1.67;;;0.70;;
15936;SDS011;9163;48.818;8.976;2022-09-09T08:23:37;3.40;;;0.87;;
15936;SDS011;9163;48.818;8.976;2022-09-09T08:26:07;2.23;;;0.83;;
15936;SDS011;9163;48.818;8.976;2022-09-09T08:28:37;2.13;;;0.83;;
15936;SDS011;9163;48.818;8.976;2022-09-09T08:31:06;4.23;;;0.93;;
15936;SDS011;9163;48.818;8.976;2022-09-09T08:33:40;3.57;;;0.97;;
15936;SDS011;9163;48.818;8.976;2022-09-09T08:36:10;3.53;;;0.87;;
15936;SDS011;9163;48.818;8.976;2022-09-09T08:38:40;3.07;;;0.70;;
15936;SDS011;9163;48.818;8.976;2022-09-09T08:41:16;3.40;;;0.83;;
15936;SDS011;9163;48.818;8.976;2022-09-09T08:44:05;3.17;;;0.90;;
15936;SDS011;9163;48.818;8.976;2022-09-09T08:46:39;3.80;;;0.83;;
15936;SDS011;9163;48.818;8.976;2022-09-09T08:52:23;2.27;;;0.73;;
15936;SDS011;9163;48.818;8.976;2022-09-09T08:54:55;2.27;;;0.80;;
15936;SDS011;9163;48.818;8.976;2022-09-09T08:57:29;2.17;;;0.60;;
15936;SDS011;9163;48.818;8.976;2022-09-09T08:59:58;2.73;;;0.60;;
15936;SDS011;9163;48.818;8.976;2022-09-09T09:02:27;1.83;;;0.60;;
15936;SDS011;9163;48.818;8.976;2022-09-09T09:05:08;2.33;;;0.60;;
15936;SDS011;9163;48.818;8.976;2022-09-09T09:07:47;5.13;;;0.87;;
15936;SDS011;9163;48.818;8.976;2022-09-09T09:10:25;2.97;;;0.90;;
15936;SDS011;9163;48.818;8.976;2022-09-09T09:13:02;1.83;;;0.87;;
15936;SDS011;9163;48.818;8.976;2022-09-09T09:15:31;3.03;;;0.80;;
15936;SDS011;9163;48.818;8.976;2022-09-09T09:18:04;2.17;;;0.70;;
15936;SDS011;9163;48.818;8.976;2022-09-09T09:20:46;3.80;;;0.90;;
15936;SDS011;9163;48.818;8.976;2022-09-09T09:23:21;5.13;;;1.27;;
15936;SDS011;9163;48.818;8.976;2022-09-09T09:25:50;3.93;;;0.87;;
15936;SDS011;9163;48.818;8.976;2022-09-09T09:28:23;3.77;;;1.00;;
15936;SDS011;9163;48.818;8.976;2022-09-09T09:30:52;2.80;;;0.80;;
15936;SDS011;9163;48.818;8.976;2022-09-09T09:33:25;3.77;;;1.00;;
15936;SDS011;9163;48.818;8.976;2022-09-09T09:35:56;3.03;;;0.97;;
15936;SDS011;9163;48.818;8.976;2022-09-09T09:38:26;3.07;;;0.90;;
15936;SDS011;9163;48.818;8.976;2022-09-09T09:40:57;4.70;;;0.93;;
15936;SDS011;9163;48.818;8.976;2022-09-09T09:43:26;6.33;;;1.13;;
15936;SDS011;9163;48.818;8.976;2022-09-09T09:45:55;4.67;;;1.10;;
15936;SDS011;9163;48.818;8.976;2022-09-09T09:48:24;3.80;;;0.90;;
15936;SDS011;9163;48.818;8.976;2022-09-09T09:50:52;3.20;;;0.90;;
15936;SDS011;9163;48.818;8.976;2022-09-09T09:53:23;3.67;;;0.90;;
15936;SDS011;9163;48.818;8.976;2022-09-09T09:55:55;2.30;;;0.70;;
15936;SDS011;9163;48.818;8.976;2022-09-09T09:58:26;2.03;;;0.80;;
15936;SDS011;9163;48.818;8.976;2022-09-09T10:00:57;2.50;;;0.77;;
15936;SDS011;9163;48.818;8.976;2022-09-09T10:03:25;3.40;;;0.70;;
15936;SDS011;9163;48.818;8.976;2022-09-09T10:05:55;4.63;;;0.90;;
15936;SDS011;9163;48.818;8.976;2022-09-09T10:08:23;3.03;;;0.90;;
15936;SDS011;9163;48.818;8.976;2022-09-09T10:11:00;3.13;;;0.90;;
15936;SDS011;9163;48.818;8.976;2022-09-09T10:13:39;5.40;;;0.80;;
15936;SDS011;9163;48.818;8.976;2022-09-09T10:16:20;3.03;;;0.87;;
15936;SDS011;9163;48.818;8.976;2022-09-09T10:19:01;3.63;;;0.90;;
15936;SDS011;9163;48.818;8.976;2022-09-09T10:21:37;2.20;;;0.60;;
15936;SDS011;9163;48.818;8.976;2022-09-09T10:24:33;3.10;;;0.67;;
15936;SDS011;9163;48.818;8.976;2022-09-09T10:27:11;1.97;;;0.87;;
15936;SDS011;9163;48.818;8.976;2022-09-09T10:29:56;3.87;;;0.87;;
15936;SDS011;9163;48.818;8.976;2022-09-09T10:32:37;2.53;;;0.90;;
15936;SDS011;9163;48.818;8.976;2022-09-09T10:35:22;2.43;;;1.00;;
15936;SDS011;9163;48.818;8.976;2022-09-09T10:38:18;3.33;;;0.67;;
15936;SDS011;9163;48.818;8.976;2022-09-09T10:43:59;4.33;;;0.80;;
15936;SDS011;9163;48.818;8.976;2022-09-09T10:46:43;3.30;;;0.77;;
15936;SDS011;9163;48.818;8.976;2022-09-09T10:49:30;4.90;;;0.93;;
15936;SDS011;9163;48.818;8.976;2022-09-09T10:52:38;2.10;;;0.80;;
15936;SDS011;9163;48.818;8.976;2022-09-09T10:55:16;1.77;;;0.70;;
15936;SDS011;9163;48.818;8.976;2022-09-09T10:57:45;3.97;;;0.80;;
15936;SDS011;9163;48.818;8.976;2022-09-09T11:00:15;3.73;;;0.80;;
15936;SDS011;9163;48.818;8.976;2022-09-09T11:02:46;1.90;;;0.80;;
15936;SDS011;9163;48.818;8.976;2022-09-09T11:05:18;3.17;;;1.20;;
15936;SDS011;9163;48.818;8.976;2022-09-09T11:07:47;5.67;;;1.40;;
15936;SDS011;9163;48.818;8.976;2022-09-09T11:10:23;3.47;;;1.10;;
15936;SDS011;9163;48.818;8.976;2022-09-09T11:12:56;2.50;;;0.80;;
15936;SDS011;9163;48.818;8.976;2022-09-09T11:15:31;2.90;;;0.80;;
15936;SDS011;9163;48.818;8.976;2022-09-09T11:18:06;3.73;;;0.90;;
15936;SDS011;9163;48.818;8.976;2022-09-09T11:20:38;3.47;;;0.70;;
15936;SDS011;9163;48.818;8.976;2022-09-09T11:23:09;4.83;;;0.43;;
15936;SDS011;9163;48.818;8.976;2022-09-09T11:25:46;1.77;;;0.50;;
15936;SDS011;9163;48.818;8.976;2022-09-09T11:28:31;1.40;;;0.50;;
15936;SDS011;9163;48.818;8.976;2022-09-09T11:31:10;2.30;;;0.50;;
15936;SDS011;9163;48.818;8.976;2022-09-09T11:33:56;1.67;;;0.40;;
15936;SDS011;9163;48.818;8.976;2022-09-09T11:36:54;2.40;;;0.60;;
15936;SDS011;9163;48.818;8.976;2022-09-09T11:39:37;1.27;;;0.60;;
15936;SDS011;9163;48.818;8.976;2022-09-09T11:42:22;0.50;;;0.50;;
15936;SDS011;9163;48.818;8.976;2022-09-09T11:44:54;1.77;;;0.40;;
15936;SDS011;9163;48.818;8.976;2022-09-09T11:47:38;1.70;;;0.57;;
15936;SDS011;9163;48.818;8.976;2022-09-09T11:50:10;1.77;;;0.43;;
15936;SDS011;9163;48.818;8.976;2022-09-09T11:53:03;2.47;;;0.40;;
15936;SDS011;9163;48.818;8.976;2022-09-09T11:59:01;2.57;;;0.60;;
15936;SDS011;9163;48.818;8.976;2022-09-09T12:01:34;2.00;;;0.67;;
15936;SDS011;9163;48.818;8.976;2022-09-09T12:06:59;2.07;;;0.60;;
15936;SDS011;9163;48.818;8.976;2022-09-09T12:09:30;2.93;;;0.70;;
15936;SDS011;9163;48.818;8.976;2022-09-09T12:12:07;2.80;;;0.50;;
15936;SDS011;9163;48.818;8.976;2022-09-09T12:14:56;1.83;;;0.50;;
15936;SDS011;9163;48.818;8.976;2022-09-09T12:17:26;0.97;;;0.47;;
15936;SDS011;9163;48.818;8.976;2022-09-09T12:20:03;2.77;;;0.50;;
15936;SDS011;9163;48.818;8.976;2022-09-09T12:22:40;1.50;;;0.60;;
15936;SDS011;9163;48.818;8.976;2022-09-09T12:25:19;1.47;;;0.47;;
15936;SDS011;9163;48.818;8.976;2022-09-09T12:27:58;2.57;;;0.50;;
15936;SDS011;9163;48.818;8.976;2022-09-09T12:30:34;0.87;;;0.30;;
15936;SDS011;9163;48.818;8.976;2022-09-09T12:33:10;3.13;;;0.67;;
15936;SDS011;9163;48.818;8.976;2022-09-09T12:35:39;1.80;;;0.40;;
15936;SDS011;9163;48.818;8.976;2022-09-09T12:38:10;1.83;;;0.70;;
15936;SDS011;9163;48.818;8.976;2022-09-09T12:40:53;3.87;;;0.70;;
15936;SDS011;9163;48.818;8.976;2022-09-09T12:43:23;3.50;;;0.60;;
15936;SDS011;9163;48.818;8.976;2022-09-09T12:45:58;2.17;;;0.50;;
15936;SDS011;9163;48.818;8.976;2022-09-09T12:48:32;1.50;;;0.47;;
15936;SDS011;9163;48.818;8.976;2022-09-09T12:51:04;1.17;;;0.50;;
15936;SDS011;9163;48.818;8.976;2022-09-09T12:53:35;2.23;;;0.50;;
15936;SDS011;9163;48.818;8.976;2022-09-09T12:56:05;2.83;;;0.73;;
15936;SDS011;9163;48.818;8.976;2022-09-09T12:58:35;2.57;;;0.40;;
15936;SDS011;9163;48.818;8.976;2022-09-09T13:01:05;1.07;;;0.40;;
15936;SDS011;9163;48.818;8.976;2022-09-09T13:03:47;3.17;;;0.40;;
15936;SDS011;9163;48.818;8.976;2022-09-09T13:06:25;1.67;;;0.50;;
15936;SDS011;9163;48.818;8.976;2022-09-09T13:09:04;1.60;;;0.50;;
15936;SDS011;9163;48.818;8.976;2022-09-09T13:11:35;2.90;;;0.90;;
15936;SDS011;9163;48.818;8.976;2022-09-09T13:14:12;2.30;;;0.60;;
15936;SDS011;9163;48.818;8.976;2022-09-09T13:19:35;1.60;;;0.50;;
15936;SDS011;9163;48.818;8.976;2022-09-09T13:22:11;1.10;;;0.30;;
15936;SDS011;9163;48.818;8.976;2022-09-09T13:24:39;2.70;;;0.70;;
15936;SDS011;9163;48.818;8.976;2022-09-09T13:27:20;2.80;;;0.67;;
15936;SDS011;9163;48.818;8.976;2022-09-09T13:29:54;2.77;;;0.53;;
15936;SDS011;9163;48.818;8.976;2022-09-09T13:32:24;1.57;;;0.60;;
15936;SDS011;9163;48.818;8.976;2022-09-09T13:34:55;1.17;;;0.43;;
15936;SDS011;9163;48.818;8.976;2022-09-09T13:37:26;2.17;;;0.40;;
15936;SDS011;9163;48.818;8.976;2022-09-09T13:39:59;1.63;;;0.50;;
15936;SDS011;9163;48.818;8.976;2022-09-09T13:42:29;1.80;;;0.50;;
15936;SDS011;9163;48.818;8.976;2022-09-09T13:45:00;1.17;;;0.50;;
15936;SDS011;9163;48.818;8.976;2022-09-09T13:47:32;1.80;;;0.53;;
15936;SDS011;9163;48.818;8.976;2022-09-09T13:50:09;1.67;;;0.40;;
15936;SDS011;9163;48.818;8.976;2022-09-09T13:52:45;3.30;;;0.70;;
15936;SDS011;9163;48.818;8.976;2022-09-09T13:55:12;0.70;;;0.40;;
15936;SDS011;9163;48.818;8.976;2022-09-09T13:57:49;2.97;;;0.57;;
15936;SDS011;9163;48.818;8.976;2022-09-09T14:00:17;1.13;;;0.40;;
15936;SDS011;9163;48.818;8.976;2022-09-09T14:02:46;3.00;;;0.50;;
15936;SDS011;9163;48.818;8.976;2022-09-09T14:05:14;1.53;;;0.60;;
15936;SDS011;9163;48.818;8.976;2022-09-09T14:07:42;1.77;;;0.50;;
15936;SDS011;9163;48.818;8.976;2022-09-09T14:10:10;2.43;;;0.57;;
15936;SDS011;9163;48.818;8.976;2022-09-09T14:12:38;1.63;;;0.43;;
15936;SDS011;9163;48.818;8.976;2022-09-09T14:15:06;1.73;;;0.53;;
15936;SDS011;9163;48.818;8.976;2022-09-09T14:17:36;1.90;;;0.50;;
15936;SDS011;9163;48.818;8.976;2022-09-09T14:20:06;1.60;;;0.40;;
15936;SDS011;9163;48.818;8.976;2022-09-09T14:22:34;0.93;;;0.30;;
15936;SDS011;9163;48.818;8.976;2022-09-09T14:25:04;0.83;;;0.40;;
15936;SDS011;9163;48.818;8.976;2022-09-09T14:27:32;1.77;;;0.40;;
15936;SDS011;9163;48.818;8.976;2022-09-09T14:30:00;1.57;;;0.50;;
15936;SDS011;9163;48.818;8.976;2022-09-09T14:32:27;2.57;;;0.50;;
15936;SDS011;9163;48.818;8.976;2022-09-09T14:34:55;1.50;;;0.50;;
15936;SDS011;9163;48.818;8.976;2022-09-09T14:37:24;1.43;;;0.50;;
15936;SDS011;9163;48.818;8.976;2022-09-09T14:39:51;1.30;;;0.60;;
15936;SDS011;9163;48.818;8.976;2022-09-09T14:42:19;2.33;;;0.50;;
15936;SDS011;9163;48.818;8.976;2022-09-09T14:44:47;3.43;;;0.60;;
15936;SDS011;9163;48.818;8.976;2022-09-09T14:47:14;3.07;;;0.37;;
15936;SDS011;9163;48.818;8.976;2022-09-09T14:49:42;1.10;;;0.30;;
15936;SDS011;9163;48.818;8.976;2022-09-09T14:52:09;2.47;;;0.37;;
15936;SDS011;9163;48.818;8.976;2022-09-09T14:54:38;2.23;;;0.30;;
15936;SDS011;9163;48.818;8.976;2022-09-09T14:57:05;1.20;;;0.40;;
15936;SDS011;9163;48.818;8.976;2022-09-09T14:59:33;2.10;;;0.57;;
15936;SDS011;9163;48.818;8.976;2022-09-09T15:02:00;1.27;;;0.30;;
15936;SDS011;9163;48.818;8.976;2022-09-09T15:04:29;1.47;;;0.40;;
15936;SDS011;9163;48.818;8.976;2022-09-09T15:06:58;3.03;;;0.40;;
15936;SDS011;9163;48.818;8.976;2022-09-09T15:09:27;1.20;;;0.43;;
15936;SDS011;9163;48.818;8.976;2022-09-09T15:11:57;0.87;;;0.30;;
15936;SDS011;9163;48.818;8.976;2022-09-09T15:14:28;1.43;;;0.37;;
15936;SDS011;9163;48.818;8.976;2022-09-09T15:16:56;1.30;;;0.37;;
15936;SDS011;9163;48.818;8.976;2022-09-09T15:19:23;1.67;;;0.30;;
15936;SDS011;9163;48.818;8.976;2022-09-09T15:21:51;3.03;;;0.50;;
15936;SDS011;9163;48.818;8.976;2022-09-09T15:24:18;1.17;;;0.40;;
15936;SDS011;9163;48.818;8.976;2022-09-09T15:26:46;4.07;;;0.50;;
15936;SDS011;9163;48.818;8.976;2022-09-09T15:29:15;1.63;;;0.40;;
15936;SDS011;9163;48.818;8.976;2022-09-09T15:31:42;1.73;;;0.40;;
15936;SDS011;9163;48.818;8.976;2022-09-09T15:34:09;1.60;;;0.40;;
15936;SDS011;9163;48.818;8.976;2022-09-09T15:36:39;3.00;;;0.43;;
15936;SDS011;9163;48.818;8.976;2022-09-09T15:39:08;1.93;;;0.50;;
15936;SDS011;9163;48.818;8.976;2022-09-09T15:41:38;2.33;;;0.60;;
15936;SDS011;9163;48.818;8.976;2022-09-09T15:44:06;1.53;;;0.50;;
15936;SDS011;9163;48.818;8.976;2022-09-09T15:46:40;1.50;;;0.37;;
15936;SDS011;9163;48.818;8.976;2022-09-09T15:49:09;1.80;;;0.80;;
15936;SDS011;9163;48.818;8.976;2022-09-09T15:51:38;3.57;;;0.63;;
15936;SDS011;9163;48.818;8.976;2022-09-09T15:54:08;1.97;;;0.60;;
15936;SDS011;9163;48.818;8.976;2022-09-09T15:56:37;2.20;;;0.40;;
15936;SDS011;9163;48.818;8.976;2022-09-09T15:59:05;2.17;;;0.60;;
15936;SDS011;9163;48.818;8.976;2022-09-09T16:01:32;2.47;;;0.50;;
15936;SDS011;9163;48.818;8.976;2022-09-09T16:04:01;2.33;;;0.50;;
15936;SDS011;9163;48.818;8.976;2022-09-09T16:06:29;2.27;;;0.60;;
15936;SDS011;9163;48.818;8.976;2022-09-09T16:08:57;3.80;;;0.80;;
15936;SDS011;9163;48.818;8.976;2022-09-09T16:11:27;1.53;;;0.60;;
15936;SDS011;9163;48.818;8.976;2022-09-09T16:13:58;0.87;;;0.37;;